ADDS METAR Data INFO
IDs: Format: Raw Decoded Include TAF

Data at: 2030 UTC 20 Jul 2018

KHLN 201953Z 04011KT 10SM CLR 32/05 A2995 RMK AO2 SLP117 T03220050
KHLN 201853Z 07007KT 030V100 10SM CLR 32/06 A2997 RMK AO2 SLP122 T03170061
KHLN 201753Z 07010KT 10SM CLR 28/08 A2999 RMK AO2 SLP131 T02830078 10283 20139 58020
KHLN 201653Z VRB03KT 10SM CLR 26/09 A3001 RMK AO2 SLP140 T02560089
KHLN 201553Z VRB03KT 10SM CLR 22/06 A3004 RMK AO2 SLP152 T02170061
KHLN 201453Z 32004KT 10SM CLR 18/06 A3006 RMK AO2 SLP158 T01830061 50004
KHLN 201353Z 03003KT 10SM CLR 16/06 A3006 RMK AO2 SLP159 T01560061
KHLN 201253Z 34003KT 10SM CLR 16/07 A3006 RMK AO2 SLP159 T01560067
KHLN 201153Z 00000KT 10SM CLR 14/06 A3004 RMK AO2 SLP155 T01390061 10217 20133 53005
KHLN 201053Z AUTO 00000KT 10SM CLR 13/06 A3003 RMK AO2 SLP148 T01330056
KHLN 200953Z AUTO 00000KT 10SM CLR 18/05 A3003 RMK AO2 SLP144 T01780050
KHLN 200853Z AUTO 00000KT 10SM CLR 18/05 A3002 RMK AO2 SLP144 T01780050 51009
KHLN 200753Z AUTO 25005KT 10SM CLR 18/05 A3002 RMK AO2 SLP141 T01830050
KHLN 200653Z AUTO 00000KT 10SM CLR 19/06 A3001 RMK AO2 SLP140 T01890056 403280167
KHLN 200553Z AUTO 00000KT 10SM CLR 22/04 A2999 RMK AO2 SLP133 T02170044 10311 20211 51009
KHLN 200453Z AUTO 22005KT 10SM CLR 22/04 A2999 RMK AO2 SLP135 T02220044
KHLN 200353Z AUTO 30006KT 10SM CLR 23/04 A2999 RMK AO2 SLP137 T02330039
KHLN 200253Z 35005KT 10SM CLR 27/06 A2996 RMK AO2 SLP123 T02720056 55002
KHLN 200153Z VRB03KT 10SM CLR 31/04 A2995 RMK AO2 SLP117 T03060039
KHLN 200053Z VRB04KT 10SM CLR 31/04 A2995 RMK AO2 SLP118 T03110044
KHLN 192353Z 13004KT 10SM CLR 31/03 A2997 RMK AO2 SLP125 T03060028 10328 20267 56017
KHLN 192253Z 10SM CLR 32/04 A2999 RMK AO2 SLP131 T03220044
KHLN 192153Z 07007KT 10SM CLR 32/03 A3000 RMK AO2 SLP134 T03170028
KHLN 192053Z AUTO 31007KT 10SM CLR 31/02 A3002 RMK AO2 SLP143 T03110022 56020
KHLN 191953Z VRB04KT 10SM CLR 30/03 A3005 RMK AO2 SLP151 T03000033
KHLN 191853Z 10SM CLR 28/05 A3007 RMK AO2 SLP155 T02830050
KHLN 191753Z 10SM CLR 27/07 A3009 RMK AO2 SLP165 T02670067 10267 20167 58014
KHLN 191653Z 09006KT 10SM CLR 24/09 A3010 RMK AO2 SLP172 T02440089
KHLN 191553Z VRB03KT 10SM CLR 22/09 A3012 RMK AO2 SLP179 T02220089
KHLN 191453Z 00000KT 10SM CLR 20/08 A3014 RMK AO2 SLP183 T02000078 53001
KHLN 191353Z 05006KT 10SM CLR 19/08 A3013 RMK AO2 SLP179 T01890083
KHLN 191253Z 00000KT 10SM CLR 18/08 A3014 RMK AO2 SLP180 T01830083
KHLN 191153Z 25006KT 10SM CLR 17/07 A3013 RMK AO2 SLP178 T01670067 10239 20167 51009
KHLN 191053Z AUTO 25007KT 10SM CLR 17/03 A3013 RMK AO2 SLP177 T01670033
KHLN 190953Z AUTO 29010KT 10SM CLR 18/01 A3013 RMK AO2 SLP175 T01780006
KHLN 190853Z AUTO 25007KT 10SM CLR 19/M01 A3010 RMK AO2 SLP165 T01891011 51014